sensor_id;sensor_type;location;lat;lon;timestamp;P1;durP1;ratioP1;P2;durP2;ratioP2
8050;SDS011;4068;42.158;24.732;2023-02-15T00:01:29;31.97;;;11.90;;
8050;SDS011;4068;42.158;24.732;2023-02-15T00:03:55;20.77;;;11.37;;
8050;SDS011;4068;42.158;24.732;2023-02-15T00:06:21;18.30;;;11.10;;
8050;SDS011;4068;42.158;24.732;2023-02-15T00:08:47;17.83;;;10.07;;
8050;SDS011;4068;42.158;24.732;2023-02-15T00:11:13;21.23;;;11.53;;
8050;SDS011;4068;42.158;24.732;2023-02-15T00:13:40;20.67;;;11.83;;
8050;SDS011;4068;42.158;24.732;2023-02-15T00:16:07;19.40;;;10.83;;
8050;SDS011;4068;42.158;24.732;2023-02-15T00:18:34;18.10;;;10.83;;
8050;SDS011;4068;42.158;24.732;2023-02-15T00:21:03;19.30;;;11.73;;
8050;SDS011;4068;42.158;24.732;2023-02-15T00:23:34;24.70;;;12.60;;
8050;SDS011;4068;42.158;24.732;2023-02-15T00:26:04;22.97;;;12.73;;
8050;SDS011;4068;42.158;24.732;2023-02-15T00:28:34;23.23;;;12.20;;
8050;SDS011;4068;42.158;24.732;2023-02-15T00:31:06;22.37;;;11.43;;
8050;SDS011;4068;42.158;24.732;2023-02-15T00:33:33;22.03;;;12.27;;
8050;SDS011;4068;42.158;24.732;2023-02-15T00:35:59;23.50;;;12.60;;
8050;SDS011;4068;42.158;24.732;2023-02-15T00:38:25;22.13;;;11.50;;
8050;SDS011;4068;42.158;24.732;2023-02-15T00:40:56;21.63;;;11.33;;
8050;SDS011;4068;42.158;24.732;2023-02-15T00:43:23;25.33;;;12.67;;
8050;SDS011;4068;42.158;24.732;2023-02-15T00:45:49;21.43;;;11.87;;
8050;SDS011;4068;42.158;24.732;2023-02-15T00:48:15;22.17;;;11.70;;
8050;SDS011;4068;42.158;24.732;2023-02-15T00:50:40;20.27;;;11.73;;
8050;SDS011;4068;42.158;24.732;2023-02-15T00:53:06;20.00;;;11.83;;
8050;SDS011;4068;42.158;24.732;2023-02-15T00:55:32;25.43;;;13.20;;
8050;SDS011;4068;42.158;24.732;2023-02-15T00:57:57;21.87;;;13.27;;
8050;SDS011;4068;42.158;24.732;2023-02-15T01:00:23;31.90;;;12.53;;
8050;SDS011;4068;42.158;24.732;2023-02-15T01:02:49;23.03;;;12.50;;
8050;SDS011;4068;42.158;24.732;2023-02-15T01:05:14;21.53;;;11.90;;
8050;SDS011;4068;42.158;24.732;2023-02-15T01:07:40;19.90;;;11.23;;
8050;SDS011;4068;42.158;24.732;2023-02-15T01:10:06;20.93;;;11.73;;
8050;SDS011;4068;42.158;24.732;2023-02-15T01:12:32;21.10;;;11.13;;
8050;SDS011;4068;42.158;24.732;2023-02-15T01:14:59;21.60;;;12.20;;
8050;SDS011;4068;42.158;24.732;2023-02-15T01:17:24;20.50;;;11.33;;
8050;SDS011;4068;42.158;24.732;2023-02-15T01:19:50;20.93;;;12.67;;
8050;SDS011;4068;42.158;24.732;2023-02-15T01:22:16;20.77;;;11.60;;
8050;SDS011;4068;42.158;24.732;2023-02-15T01:24:42;23.83;;;13.27;;
8050;SDS011;4068;42.158;24.732;2023-02-15T01:27:07;22.23;;;11.93;;
8050;SDS011;4068;42.158;24.732;2023-02-15T01:29:33;24.50;;;12.87;;
8050;SDS011;4068;42.158;24.732;2023-02-15T01:31:58;24.57;;;12.60;;
8050;SDS011;4068;42.158;24.732;2023-02-15T01:34:23;22.20;;;11.63;;
8050;SDS011;4068;42.158;24.732;2023-02-15T01:36:49;23.87;;;13.93;;
8050;SDS011;4068;42.158;24.732;2023-02-15T01:39:14;24.17;;;13.50;;
8050;SDS011;4068;42.158;24.732;2023-02-15T01:41:40;24.43;;;12.23;;
8050;SDS011;4068;42.158;24.732;2023-02-15T01:47:09;22.50;;;12.03;;
8050;SDS011;4068;42.158;24.732;2023-02-15T01:49:37;26.20;;;13.10;;
8050;SDS011;4068;42.158;24.732;2023-02-15T01:52:06;24.47;;;12.40;;
8050;SDS011;4068;42.158;24.732;2023-02-15T01:54:34;23.63;;;12.37;;
8050;SDS011;4068;42.158;24.732;2023-02-15T01:57:05;24.83;;;13.43;;
8050;SDS011;4068;42.158;24.732;2023-02-15T01:59:35;18.90;;;11.23;;
8050;SDS011;4068;42.158;24.732;2023-02-15T02:02:04;23.70;;;12.87;;
8050;SDS011;4068;42.158;24.732;2023-02-15T02:04:35;23.67;;;13.10;;
8050;SDS011;4068;42.158;24.732;2023-02-15T02:07:06;21.90;;;12.10;;
8050;SDS011;4068;42.158;24.732;2023-02-15T02:09:32;25.60;;;13.50;;
8050;SDS011;4068;42.158;24.732;2023-02-15T02:11:59;30.30;;;12.83;;
8050;SDS011;4068;42.158;24.732;2023-02-15T02:14:25;24.10;;;12.17;;
8050;SDS011;4068;42.158;24.732;2023-02-15T02:31:53;23.47;;;11.97;;
8050;SDS011;4068;42.158;24.732;2023-02-15T02:34:58;24.00;;;12.40;;
8050;SDS011;4068;42.158;24.732;2023-02-15T02:40:41;23.37;;;12.00;;
8050;SDS011;4068;42.158;24.732;2023-02-15T02:43:26;21.83;;;11.47;;
8050;SDS011;4068;42.158;24.732;2023-02-15T02:46:00;24.87;;;12.47;;
8050;SDS011;4068;42.158;24.732;2023-02-15T02:48:32;21.53;;;11.27;;
8050;SDS011;4068;42.158;24.732;2023-02-15T02:50:58;22.67;;;11.27;;
8050;SDS011;4068;42.158;24.732;2023-02-15T02:53:23;20.70;;;12.10;;
8050;SDS011;4068;42.158;24.732;2023-02-15T02:55:51;21.13;;;11.10;;
8050;SDS011;4068;42.158;24.732;2023-02-15T03:01:03;24.10;;;11.93;;
8050;SDS011;4068;42.158;24.732;2023-02-15T03:03:38;19.67;;;11.17;;
8050;SDS011;4068;42.158;24.732;2023-02-15T03:06:12;25.07;;;13.67;;
8050;SDS011;4068;42.158;24.732;2023-02-15T03:08:44;24.70;;;12.40;;
8050;SDS011;4068;42.158;24.732;2023-02-15T03:11:13;20.33;;;12.00;;
8050;SDS011;4068;42.158;24.732;2023-02-15T03:13:39;22.53;;;12.00;;
8050;SDS011;4068;42.158;24.732;2023-02-15T03:16:05;21.57;;;11.63;;
8050;SDS011;4068;42.158;24.732;2023-02-15T03:19:02;22.73;;;12.03;;
8050;SDS011;4068;42.158;24.732;2023-02-15T03:21:43;23.80;;;12.93;;
8050;SDS011;4068;42.158;24.732;2023-02-15T03:24:22;26.33;;;13.07;;
8050;SDS011;4068;42.158;24.732;2023-02-15T03:26:52;23.87;;;12.47;;
8050;SDS011;4068;42.158;24.732;2023-02-15T03:29:20;35.83;;;12.60;;
8050;SDS011;4068;42.158;24.732;2023-02-15T03:31:49;29.20;;;14.33;;
8050;SDS011;4068;42.158;24.732;2023-02-15T03:34:20;28.10;;;13.27;;
8050;SDS011;4068;42.158;24.732;2023-02-15T03:36:47;25.03;;;13.80;;
8050;SDS011;4068;42.158;24.732;2023-02-15T03:41:58;25.77;;;13.60;;
8050;SDS011;4068;42.158;24.732;2023-02-15T03:44:33;27.03;;;12.93;;
8050;SDS011;4068;42.158;24.732;2023-02-15T03:47:23;24.10;;;12.90;;
8050;SDS011;4068;42.158;24.732;2023-02-15T03:49:55;28.37;;;13.93;;
8050;SDS011;4068;42.158;24.732;2023-02-15T03:52:27;29.07;;;12.73;;
8050;SDS011;4068;42.158;24.732;2023-02-15T03:54:54;27.47;;;14.20;;
8050;SDS011;4068;42.158;24.732;2023-02-15T03:57:25;25.90;;;13.63;;
8050;SDS011;4068;42.158;24.732;2023-02-15T04:00:18;27.43;;;13.53;;
8050;SDS011;4068;42.158;24.732;2023-02-15T04:05:56;24.87;;;12.63;;
8050;SDS011;4068;42.158;24.732;2023-02-15T04:08:21;25.57;;;13.43;;
8050;SDS011;4068;42.158;24.732;2023-02-15T04:11:07;23.27;;;12.53;;
8050;SDS011;4068;42.158;24.732;2023-02-15T04:13:32;26.13;;;13.93;;
8050;SDS011;4068;42.158;24.732;2023-02-15T04:15:58;31.23;;;13.97;;
8050;SDS011;4068;42.158;24.732;2023-02-15T04:18:30;22.83;;;13.60;;
8050;SDS011;4068;42.158;24.732;2023-02-15T04:21:25;22.80;;;12.57;;
8050;SDS011;4068;42.158;24.732;2023-02-15T04:24:11;28.17;;;14.07;;
8050;SDS011;4068;42.158;24.732;2023-02-15T04:26:55;24.37;;;12.93;;
8050;SDS011;4068;42.158;24.732;2023-02-15T04:29:21;20.40;;;12.23;;
8050;SDS011;4068;42.158;24.732;2023-02-15T04:31:48;26.20;;;13.87;;
8050;SDS011;4068;42.158;24.732;2023-02-15T04:34:14;25.93;;;12.73;;
8050;SDS011;4068;42.158;24.732;2023-02-15T04:36:40;28.17;;;14.67;;
8050;SDS011;4068;42.158;24.732;2023-02-15T04:39:06;27.23;;;13.47;;
8050;SDS011;4068;42.158;24.732;2023-02-15T04:41:32;28.77;;;14.73;;
8050;SDS011;4068;42.158;24.732;2023-02-15T04:43:59;29.43;;;14.17;;
8050;SDS011;4068;42.158;24.732;2023-02-15T04:46:25;38.17;;;13.77;;
8050;SDS011;4068;42.158;24.732;2023-02-15T04:48:51;26.07;;;13.40;;
8050;SDS011;4068;42.158;24.732;2023-02-15T04:51:16;29.13;;;15.23;;
8050;SDS011;4068;42.158;24.732;2023-02-15T04:53:42;28.90;;;14.73;;
8050;SDS011;4068;42.158;24.732;2023-02-15T04:56:07;29.17;;;14.87;;
8050;SDS011;4068;42.158;24.732;2023-02-15T04:58:33;32.00;;;15.67;;
8050;SDS011;4068;42.158;24.732;2023-02-15T05:01:00;28.17;;;14.33;;
8050;SDS011;4068;42.158;24.732;2023-02-15T05:03:25;27.40;;;13.90;;
8050;SDS011;4068;42.158;24.732;2023-02-15T05:05:51;23.23;;;13.47;;
8050;SDS011;4068;42.158;24.732;2023-02-15T05:08:16;27.30;;;12.83;;
8050;SDS011;4068;42.158;24.732;2023-02-15T05:10:42;29.93;;;14.10;;
8050;SDS011;4068;42.158;24.732;2023-02-15T05:13:07;29.60;;;14.43;;
8050;SDS011;4068;42.158;24.732;2023-02-15T05:15:33;34.43;;;16.07;;
8050;SDS011;4068;42.158;24.732;2023-02-15T05:17:58;30.23;;;15.17;;
8050;SDS011;4068;42.158;24.732;2023-02-15T05:20:23;25.50;;;13.53;;
8050;SDS011;4068;42.158;24.732;2023-02-15T05:22:52;30.70;;;14.10;;
8050;SDS011;4068;42.158;24.732;2023-02-15T05:25:19;23.13;;;13.30;;
8050;SDS011;4068;42.158;24.732;2023-02-15T05:28:03;25.87;;;13.83;;
8050;SDS011;4068;42.158;24.732;2023-02-15T05:30:47;26.40;;;14.03;;
8050;SDS011;4068;42.158;24.732;2023-02-15T05:33:14;38.90;;;14.83;;
8050;SDS011;4068;42.158;24.732;2023-02-15T05:35:40;26.40;;;13.90;;
8050;SDS011;4068;42.158;24.732;2023-02-15T05:38:05;31.30;;;14.13;;
8050;SDS011;4068;42.158;24.732;2023-02-15T05:40:31;26.23;;;12.93;;
8050;SDS011;4068;42.158;24.732;2023-02-15T05:42:56;34.30;;;15.87;;
8050;SDS011;4068;42.158;24.732;2023-02-15T05:45:22;26.63;;;13.67;;
8050;SDS011;4068;42.158;24.732;2023-02-15T05:47:48;28.20;;;14.27;;
8050;SDS011;4068;42.158;24.732;2023-02-15T05:50:13;26.40;;;14.20;;
8050;SDS011;4068;42.158;24.732;2023-02-15T05:52:39;32.33;;;15.97;;
8050;SDS011;4068;42.158;24.732;2023-02-15T05:55:05;34.20;;;15.00;;
8050;SDS011;4068;42.158;24.732;2023-02-15T05:57:32;25.10;;;13.37;;
8050;SDS011;4068;42.158;24.732;2023-02-15T05:59:57;25.67;;;12.77;;
8050;SDS011;4068;42.158;24.732;2023-02-15T06:02:22;26.20;;;14.17;;
8050;SDS011;4068;42.158;24.732;2023-02-15T06:04:48;28.30;;;14.17;;
8050;SDS011;4068;42.158;24.732;2023-02-15T06:07:13;31.20;;;15.77;;
8050;SDS011;4068;42.158;24.732;2023-02-15T06:09:39;26.67;;;13.43;;
8050;SDS011;4068;42.158;24.732;2023-02-15T06:12:04;23.67;;;13.13;;
8050;SDS011;4068;42.158;24.732;2023-02-15T06:14:30;31.63;;;13.67;;
8050;SDS011;4068;42.158;24.732;2023-02-15T06:16:55;30.97;;;13.27;;
8050;SDS011;4068;42.158;24.732;2023-02-15T06:19:21;37.57;;;13.43;;
8050;SDS011;4068;42.158;24.732;2023-02-15T06:21:47;41.70;;;13.07;;
8050;SDS011;4068;42.158;24.732;2023-02-15T06:24:13;37.90;;;13.97;;
8050;SDS011;4068;42.158;24.732;2023-02-15T06:26:38;26.53;;;13.60;;
8050;SDS011;4068;42.158;24.732;2023-02-15T06:29:04;27.57;;;14.07;;
8050;SDS011;4068;42.158;24.732;2023-02-15T06:31:29;23.87;;;13.13;;
8050;SDS011;4068;42.158;24.732;2023-02-15T06:33:55;31.93;;;14.63;;
8050;SDS011;4068;42.158;24.732;2023-02-15T06:36:26;23.57;;;13.07;;
8050;SDS011;4068;42.158;24.732;2023-02-15T06:38:53;26.70;;;13.80;;
8050;SDS011;4068;42.158;24.732;2023-02-15T06:41:18;27.43;;;13.90;;
8050;SDS011;4068;42.158;24.732;2023-02-15T06:43:44;26.63;;;13.70;;
8050;SDS011;4068;42.158;24.732;2023-02-15T06:46:09;27.30;;;13.33;;
8050;SDS011;4068;42.158;24.732;2023-02-15T06:48:35;26.17;;;13.43;;
8050;SDS011;4068;42.158;24.732;2023-02-15T06:51:00;23.53;;;13.27;;
8050;SDS011;4068;42.158;24.732;2023-02-15T06:53:25;27.00;;;14.00;;
8050;SDS011;4068;42.158;24.732;2023-02-15T06:55:51;23.37;;;14.30;;
8050;SDS011;4068;42.158;24.732;2023-02-15T06:58:16;27.60;;;14.10;;
8050;SDS011;4068;42.158;24.732;2023-02-15T07:00:42;27.17;;;13.23;;
8050;SDS011;4068;42.158;24.732;2023-02-15T07:03:08;23.83;;;11.73;;
8050;SDS011;4068;42.158;24.732;2023-02-15T07:05:34;26.07;;;14.07;;
8050;SDS011;4068;42.158;24.732;2023-02-15T07:08:00;25.50;;;13.53;;
8050;SDS011;4068;42.158;24.732;2023-02-15T07:10:26;25.93;;;13.67;;
8050;SDS011;4068;42.158;24.732;2023-02-15T07:12:52;30.83;;;12.87;;
8050;SDS011;4068;42.158;24.732;2023-02-15T07:15:18;22.13;;;13.23;;
8050;SDS011;4068;42.158;24.732;2023-02-15T07:17:47;25.83;;;14.23;;
8050;SDS011;4068;42.158;24.732;2023-02-15T07:20:17;27.07;;;14.07;;
8050;SDS011;4068;42.158;24.732;2023-02-15T07:22:44;25.37;;;13.20;;
8050;SDS011;4068;42.158;24.732;2023-02-15T07:25:11;23.20;;;13.90;;
8050;SDS011;4068;42.158;24.732;2023-02-15T07:27:37;22.00;;;13.20;;
8050;SDS011;4068;42.158;24.732;2023-02-15T07:30:04;23.80;;;12.93;;
8050;SDS011;4068;42.158;24.732;2023-02-15T07:32:31;29.25;;;14.30;;
8050;SDS011;4068;42.158;24.732;2023-02-15T07:34:57;26.00;;;13.53;;
8050;SDS011;4068;42.158;24.732;2023-02-15T07:37:23;28.37;;;13.87;;
8050;SDS011;4068;42.158;24.732;2023-02-15T07:39:49;24.07;;;12.57;;
8050;SDS011;4068;42.158;24.732;2023-02-15T07:42:14;24.10;;;12.80;;
8050;SDS011;4068;42.158;24.732;2023-02-15T07:44:40;24.60;;;13.73;;
8050;SDS011;4068;42.158;24.732;2023-02-15T07:47:05;23.92;;;12.77;;
8050;SDS011;4068;42.158;24.732;2023-02-15T07:49:31;20.70;;;12.70;;
8050;SDS011;4068;42.158;24.732;2023-02-15T07:51:56;26.33;;;13.27;;
8050;SDS011;4068;42.158;24.732;2023-02-15T07:54:22;24.90;;;13.33;;
8050;SDS011;4068;42.158;24.732;2023-02-15T07:56:47;21.30;;;12.98;;
8050;SDS011;4068;42.158;24.732;2023-02-15T07:59:13;22.17;;;12.67;;
8050;SDS011;4068;42.158;24.732;2023-02-15T08:01:38;23.53;;;13.20;;
8050;SDS011;4068;42.158;24.732;2023-02-15T08:04:05;25.87;;;13.57;;
8050;SDS011;4068;42.158;24.732;2023-02-15T08:06:32;22.95;;;12.52;;
8050;SDS011;4068;42.158;24.732;2023-02-15T08:08:59;24.13;;;15.35;;
8050;SDS011;4068;42.158;24.732;2023-02-15T08:11:27;25.95;;;14.48;;
8050;SDS011;4068;42.158;24.732;2023-02-15T08:14:04;22.20;;;12.47;;
8050;SDS011;4068;42.158;24.732;2023-02-15T08:16:33;23.63;;;14.10;;
8050;SDS011;4068;42.158;24.732;2023-02-15T08:19:14;30.60;;;12.90;;
8050;SDS011;4068;42.158;24.732;2023-02-15T08:21:43;33.30;;;20.98;;
8050;SDS011;4068;42.158;24.732;2023-02-15T08:24:10;29.70;;;16.33;;
8050;SDS011;4068;42.158;24.732;2023-02-15T08:26:37;28.63;;;15.52;;
8050;SDS011;4068;42.158;24.732;2023-02-15T08:29:04;31.75;;;13.35;;
8050;SDS011;4068;42.158;24.732;2023-02-15T08:31:31;26.27;;;13.77;;
8050;SDS011;4068;42.158;24.732;2023-02-15T08:33:57;23.75;;;12.88;;
8050;SDS011;4068;42.158;24.732;2023-02-15T08:36:23;22.58;;;13.18;;
8050;SDS011;4068;42.158;24.732;2023-02-15T08:38:50;18.60;;;12.18;;
8050;SDS011;4068;42.158;24.732;2023-02-15T08:41:17;23.58;;;12.27;;
8050;SDS011;4068;42.158;24.732;2023-02-15T08:43:48;25.00;;;14.73;;
8050;SDS011;4068;42.158;24.732;2023-02-15T08:46:16;21.30;;;13.30;;
8050;SDS011;4068;42.158;24.732;2023-02-15T08:48:42;26.65;;;13.25;;
8050;SDS011;4068;42.158;24.732;2023-02-15T08:51:09;20.80;;;13.00;;
8050;SDS011;4068;42.158;24.732;2023-02-15T08:53:40;23.65;;;12.13;;
8050;SDS011;4068;42.158;24.732;2023-02-15T08:56:07;23.40;;;14.07;;
8050;SDS011;4068;42.158;24.732;2023-02-15T08:58:34;21.05;;;12.70;;
8050;SDS011;4068;42.158;24.732;2023-02-15T09:01:00;25.42;;;12.68;;
8050;SDS011;4068;42.158;24.732;2023-02-15T09:03:27;23.77;;;13.68;;
8050;SDS011;4068;42.158;24.732;2023-02-15T09:06:00;23.50;;;13.63;;
8050;SDS011;4068;42.158;24.732;2023-02-15T09:08:26;25.80;;;12.98;;
8050;SDS011;4068;42.158;24.732;2023-02-15T09:10:52;24.08;;;13.07;;
8050;SDS011;4068;42.158;24.732;2023-02-15T09:13:18;23.75;;;12.73;;
8050;SDS011;4068;42.158;24.732;2023-02-15T09:15:45;33.33;;;21.75;;
8050;SDS011;4068;42.158;24.732;2023-02-15T09:18:10;25.73;;;12.75;;
8050;SDS011;4068;42.158;24.732;2023-02-15T09:20:37;24.10;;;12.60;;
8050;SDS011;4068;42.158;24.732;2023-02-15T09:23:02;21.33;;;12.80;;
8050;SDS011;4068;42.158;24.732;2023-02-15T09:25:28;23.08;;;13.00;;
8050;SDS011;4068;42.158;24.732;2023-02-15T09:27:53;25.33;;;13.20;;
8050;SDS011;4068;42.158;24.732;2023-02-15T09:30:19;23.52;;;13.20;;
8050;SDS011;4068;42.158;24.732;2023-02-15T09:32:45;21.45;;;12.90;;
8050;SDS011;4068;42.158;24.732;2023-02-15T09:35:11;21.25;;;11.95;;
8050;SDS011;4068;42.158;24.732;2023-02-15T09:37:37;19.70;;;13.05;;
8050;SDS011;4068;42.158;24.732;2023-02-15T09:40:03;20.48;;;12.23;;
8050;SDS011;4068;42.158;24.732;2023-02-15T09:42:34;22.85;;;12.40;;
8050;SDS011;4068;42.158;24.732;2023-02-15T09:59:32;18.90;;;11.43;;
8050;SDS011;4068;42.158;24.732;2023-02-15T10:11:20;22.17;;;11.82;;
8050;SDS011;4068;42.158;24.732;2023-02-15T10:27:20;22.00;;;12.02;;
8050;SDS011;4068;42.158;24.732;2023-02-15T10:32:24;20.17;;;12.00;;
8050;SDS011;4068;42.158;24.732;2023-02-15T10:34:52;21.15;;;11.65;;
8050;SDS011;4068;42.158;24.732;2023-02-15T10:40:02;16.90;;;10.73;;
8050;SDS011;4068;42.158;24.732;2023-02-15T10:42:34;20.83;;;10.90;;
8050;SDS011;4068;42.158;24.732;2023-02-15T10:55:56;14.52;;;9.50;;
8050;SDS011;4068;42.158;24.732;2023-02-15T11:06:08;19.27;;;11.27;;
8050;SDS011;4068;42.158;24.732;2023-02-15T11:08:39;16.13;;;10.57;;
8050;SDS011;4068;42.158;24.732;2023-02-15T11:11:30;17.92;;;10.95;;
8050;SDS011;4068;42.158;24.732;2023-02-15T11:13:58;17.70;;;10.52;;
8050;SDS011;4068;42.158;24.732;2023-02-15T11:16:28;18.40;;;11.07;;
8050;SDS011;4068;42.158;24.732;2023-02-15T11:19:39;14.85;;;9.82;;
8050;SDS011;4068;42.158;24.732;2023-02-15T11:21:59;17.13;;;10.48;;
8050;SDS011;4068;42.158;24.732;2023-02-15T11:24:29;13.40;;;9.57;;
8050;SDS011;4068;42.158;24.732;2023-02-15T11:27:15;18.30;;;10.10;;
8050;SDS011;4068;42.158;24.732;2023-02-15T11:42:51;16.38;;;10.70;;
8050;SDS011;4068;42.158;24.732;2023-02-15T11:45:27;20.02;;;11.85;;
8050;SDS011;4068;42.158;24.732;2023-02-15T11:47:57;16.80;;;10.48;;
8050;SDS011;4068;42.158;24.732;2023-02-15T11:50:27;19.92;;;10.93;;
8050;SDS011;4068;42.158;24.732;2023-02-15T11:53:06;16.08;;;10.27;;
8050;SDS011;4068;42.158;24.732;2023-02-15T11:55:37;19.10;;;9.73;;
8050;SDS011;4068;42.158;24.732;2023-02-15T11:58:15;13.57;;;9.60;;
8050;SDS011;4068;42.158;24.732;2023-02-15T12:01:00;16.55;;;9.68;;
8050;SDS011;4068;42.158;24.732;2023-02-15T12:06:15;18.27;;;10.93;;
8050;SDS011;4068;42.158;24.732;2023-02-15T12:08:48;19.00;;;9.60;;
8050;SDS011;4068;42.158;24.732;2023-02-15T12:11:25;14.48;;;9.93;;
8050;SDS011;4068;42.158;24.732;2023-02-15T12:13:59;15.88;;;9.82;;
8050;SDS011;4068;42.158;24.732;2023-02-15T12:16:26;16.05;;;9.77;;
8050;SDS011;4068;42.158;24.732;2023-02-15T12:18:55;18.65;;;11.27;;
8050;SDS011;4068;42.158;24.732;2023-02-15T12:24:03;15.93;;;10.48;;
8050;SDS011;4068;42.158;24.732;2023-02-15T12:26:46;18.13;;;10.02;;
8050;SDS011;4068;42.158;24.732;2023-02-15T12:29:22;15.02;;;10.05;;
8050;SDS011;4068;42.158;24.732;2023-02-15T12:31:52;14.93;;;9.52;;
8050;SDS011;4068;42.158;24.732;2023-02-15T12:34:22;16.55;;;10.10;;
8050;SDS011;4068;42.158;24.732;2023-02-15T12:36:50;15.27;;;9.55;;
8050;SDS011;4068;42.158;24.732;2023-02-15T12:39:27;16.58;;;10.15;;
8050;SDS011;4068;42.158;24.732;2023-02-15T12:44:21;18.65;;;9.95;;
8050;SDS011;4068;42.158;24.732;2023-02-15T12:49:35;16.10;;;9.38;;
8050;SDS011;4068;42.158;24.732;2023-02-15T12:52:10;16.58;;;9.30;;
8050;SDS011;4068;42.158;24.732;2023-02-15T12:54:49;13.68;;;9.07;;
8050;SDS011;4068;42.158;24.732;2023-02-15T12:57:31;19.83;;;10.07;;
8050;SDS011;4068;42.158;24.732;2023-02-15T13:00:24;17.48;;;10.65;;
8050;SDS011;4068;42.158;24.732;2023-02-15T13:02:53;15.20;;;8.95;;
8050;SDS011;4068;42.158;24.732;2023-02-15T13:05:22;15.88;;;9.75;;
8050;SDS011;4068;42.158;24.732;2023-02-15T13:07:53;13.25;;;8.77;;
8050;SDS011;4068;42.158;24.732;2023-02-15T13:10:24;12.82;;;8.88;;
8050;SDS011;4068;42.158;24.732;2023-02-15T13:13:01;13.93;;;9.02;;
8050;SDS011;4068;42.158;24.732;2023-02-15T13:15:35;14.57;;;9.73;;
8050;SDS011;4068;42.158;24.732;2023-02-15T13:18:04;15.27;;;9.70;;
8050;SDS011;4068;42.158;24.732;2023-02-15T13:20:35;14.23;;;9.70;;
8050;SDS011;4068;42.158;24.732;2023-02-15T13:23:03;18.15;;;10.82;;
8050;SDS011;4068;42.158;24.732;2023-02-15T13:25:37;15.52;;;9.80;;
8050;SDS011;4068;42.158;24.732;2023-02-15T13:28:10;18.25;;;10.48;;
8050;SDS011;4068;42.158;24.732;2023-02-15T13:30:42;14.15;;;9.88;;
8050;SDS011;4068;42.158;24.732;2023-02-15T13:33:15;13.20;;;9.02;;
8050;SDS011;4068;42.158;24.732;2023-02-15T13:38:49;15.82;;;9.98;;
8050;SDS011;4068;42.158;24.732;2023-02-15T13:41:33;16.65;;;11.00;;
8050;SDS011;4068;42.158;24.732;2023-02-15T13:44:12;17.00;;;10.07;;
8050;SDS011;4068;42.158;24.732;2023-02-15T13:52:25;14.95;;;9.55;;
8050;SDS011;4068;42.158;24.732;2023-02-15T13:54:57;16.80;;;9.75;;
8050;SDS011;4068;42.158;24.732;2023-02-15T14:22:05;17.20;;;9.88;;
8050;SDS011;4068;42.158;24.732;2023-02-15T14:30:23;18.67;;;11.43;;
8050;SDS011;4068;42.158;24.732;2023-02-15T14:35:49;17.45;;;10.77;;
8050;SDS011;4068;42.158;24.732;2023-02-15T14:38:22;17.65;;;11.13;;
8050;SDS011;4068;42.158;24.732;2023-02-15T14:40:56;18.67;;;11.65;;
8050;SDS011;4068;42.158;24.732;2023-02-15T14:45:56;18.40;;;11.85;;
8050;SDS011;4068;42.158;24.732;2023-02-15T14:48:33;14.60;;;10.32;;
8050;SDS011;4068;42.158;24.732;2023-02-15T14:51:03;16.77;;;10.32;;
8050;SDS011;4068;42.158;24.732;2023-02-15T14:53:38;13.20;;;8.68;;
8050;SDS011;4068;42.158;24.732;2023-02-15T14:58:36;18.05;;;9.88;;
8050;SDS011;4068;42.158;24.732;2023-02-15T15:01:03;14.15;;;9.00;;
8050;SDS011;4068;42.158;24.732;2023-02-15T15:03:32;17.50;;;9.45;;
8050;SDS011;4068;42.158;24.732;2023-02-15T15:06:00;13.15;;;9.02;;
8050;SDS011;4068;42.158;24.732;2023-02-15T15:08:35;12.68;;;8.25;;
8050;SDS011;4068;42.158;24.732;2023-02-15T15:19:01;20.55;;;11.35;;
8050;SDS011;4068;42.158;24.732;2023-02-15T15:32:44;16.60;;;11.13;;
8050;SDS011;4068;42.158;24.732;2023-02-15T15:41:17;16.40;;;10.63;;
8050;SDS011;4068;42.158;24.732;2023-02-15T15:47:12;17.08;;;10.85;;
8050;SDS011;4068;42.158;24.732;2023-02-15T15:49:57;20.60;;;11.75;;
8050;SDS011;4068;42.158;24.732;2023-02-15T15:52:23;19.95;;;12.05;;
8050;SDS011;4068;42.158;24.732;2023-02-15T15:55:36;19.10;;;10.90;;
8050;SDS011;4068;42.158;24.732;2023-02-15T15:57:41;18.38;;;11.55;;
8050;SDS011;4068;42.158;24.732;2023-02-15T16:02:57;19.40;;;11.57;;
8050;SDS011;4068;42.158;24.732;2023-02-15T16:05:23;29.27;;;13.68;;
8050;SDS011;4068;42.158;24.732;2023-02-15T16:07:49;24.40;;;12.63;;
8050;SDS011;4068;42.158;24.732;2023-02-15T16:10:21;30.55;;;15.73;;
8050;SDS011;4068;42.158;24.732;2023-02-15T16:12:49;33.20;;;16.83;;
8050;SDS011;4068;42.158;24.732;2023-02-15T16:15:17;27.13;;;14.63;;
8050;SDS011;4068;42.158;24.732;2023-02-15T16:17:50;24.73;;;12.45;;
8050;SDS011;4068;42.158;24.732;2023-02-15T16:20:41;31.13;;;14.68;;
8050;SDS011;4068;42.158;24.732;2023-02-15T16:28:26;22.98;;;13.65;;
8050;SDS011;4068;42.158;24.732;2023-02-15T16:30:58;29.75;;;15.73;;
8050;SDS011;4068;42.158;24.732;2023-02-15T16:33:35;26.60;;;14.75;;
8050;SDS011;4068;42.158;24.732;2023-02-15T16:36:02;32.67;;;16.52;;
8050;SDS011;4068;42.158;24.732;2023-02-15T16:41:07;33.17;;;16.73;;
8050;SDS011;4068;42.158;24.732;2023-02-15T16:43:33;38.17;;;17.70;;
8050;SDS011;4068;42.158;24.732;2023-02-15T16:46:03;37.15;;;17.02;;
8050;SDS011;4068;42.158;24.732;2023-02-15T16:48:30;28.85;;;15.63;;
8050;SDS011;4068;42.158;24.732;2023-02-15T16:50:58;33.60;;;15.48;;
8050;SDS011;4068;42.158;24.732;2023-02-15T16:53:27;28.70;;;14.18;;
8050;SDS011;4068;42.158;24.732;2023-02-15T16:55:55;29.77;;;14.80;;
8050;SDS011;4068;42.158;24.732;2023-02-15T16:58:26;29.48;;;14.43;;
8050;SDS011;4068;42.158;24.732;2023-02-15T17:01:01;30.30;;;14.90;;
8050;SDS011;4068;42.158;24.732;2023-02-15T17:03:27;31.88;;;16.50;;
8050;SDS011;4068;42.158;24.732;2023-02-15T17:05:55;27.25;;;14.15;;
8050;SDS011;4068;42.158;24.732;2023-02-15T17:18:59;26.90;;;13.82;;
8050;SDS011;4068;42.158;24.732;2023-02-15T17:21:34;29.17;;;13.47;;
8050;SDS011;4068;42.158;24.732;2023-02-15T17:24:05;26.30;;;15.00;;
8050;SDS011;4068;42.158;24.732;2023-02-15T17:26:34;22.57;;;13.67;;
8050;SDS011;4068;42.158;24.732;2023-02-15T17:29:14;23.83;;;14.05;;
8050;SDS011;4068;42.158;24.732;2023-02-15T17:31:44;22.60;;;13.13;;
8050;SDS011;4068;42.158;24.732;2023-02-15T17:34:41;23.90;;;12.87;;
8050;SDS011;4068;42.158;24.732;2023-02-15T17:37:11;26.23;;;13.13;;
8050;SDS011;4068;42.158;24.732;2023-02-15T17:39:38;26.33;;;14.00;;
8050;SDS011;4068;42.158;24.732;2023-02-15T17:42:05;26.43;;;13.93;;
8050;SDS011;4068;42.158;24.732;2023-02-15T17:44:31;27.92;;;13.23;;
8050;SDS011;4068;42.158;24.732;2023-02-15T17:46:56;27.57;;;14.17;;
8050;SDS011;4068;42.158;24.732;2023-02-15T17:49:23;24.30;;;13.80;;
8050;SDS011;4068;42.158;24.732;2023-02-15T17:51:53;29.80;;;15.27;;
8050;SDS011;4068;42.158;24.732;2023-02-15T17:54:18;27.23;;;15.30;;
8050;SDS011;4068;42.158;24.732;2023-02-15T17:57:02;30.20;;;15.57;;
8050;SDS011;4068;42.158;24.732;2023-02-15T17:59:30;33.50;;;14.97;;
8050;SDS011;4068;42.158;24.732;2023-02-15T18:01:56;30.30;;;14.57;;
8050;SDS011;4068;42.158;24.732;2023-02-15T18:04:40;28.10;;;13.90;;
8050;SDS011;4068;42.158;24.732;2023-02-15T18:07:24;36.47;;;16.37;;
8050;SDS011;4068;42.158;24.732;2023-02-15T18:10:16;34.30;;;15.93;;
8050;SDS011;4068;42.158;24.732;2023-02-15T18:13:01;37.87;;;16.00;;
8050;SDS011;4068;42.158;24.732;2023-02-15T18:15:27;33.07;;;16.70;;
8050;SDS011;4068;42.158;24.732;2023-02-15T18:17:52;36.20;;;16.83;;
8050;SDS011;4068;42.158;24.732;2023-02-15T18:22:58;33.03;;;18.20;;
8050;SDS011;4068;42.158;24.732;2023-02-15T18:25:26;34.30;;;18.37;;